createdAt,value
2019-01-16T00:00:40.507Z,4.73
2019-01-16T00:03:21.398Z,4.43
2019-01-16T00:06:06.927Z,5.47
2019-01-16T00:09:05.754Z,5.20
2019-01-16T00:12:01.755Z,5.33
2019-01-16T00:14:47.618Z,5.60
2019-01-16T00:17:38.022Z,5.30
2019-01-16T00:20:29.153Z,4.83
2019-01-16T00:23:28.342Z,4.30
2019-01-16T00:26:15.654Z,5.60
2019-01-16T00:29:15.067Z,5.50
2019-01-16T00:32:02.350Z,5.43
2019-01-16T00:34:47.503Z,4.33
2019-01-16T00:37:29.382Z,4.73
2019-01-16T00:40:31.379Z,5.60
2019-01-16T00:43:24.839Z,5.13
2019-01-16T00:46:06.159Z,4.77
2019-01-16T00:49:04.945Z,4.63
2019-01-16T00:52:06.731Z,5.07
2019-01-16T00:54:59.945Z,5.50
2019-01-16T00:57:45.323Z,4.80
2019-01-16T01:00:24.155Z,5.50
2019-01-16T01:03:13.954Z,4.70
2019-01-16T01:06:00.610Z,5.27
2019-01-16T01:08:41.506Z,4.80
2019-01-16T01:11:31.335Z,5.00
2019-01-16T01:14:21.059Z,4.70
2019-01-16T01:17:08.430Z,4.33
2019-01-16T01:19:54.110Z,5.80
2019-01-16T01:22:56.114Z,4.70
2019-01-16T01:25:38.848Z,5.80
2019-01-16T01:28:14.739Z,5.70
2019-01-16T01:31:06.760Z,4.90
2019-01-16T01:34:11.919Z,4.23
2019-01-16T01:37:01.870Z,5.47
2019-01-16T01:39:48.830Z,4.40
2019-01-16T01:42:41.576Z,3.83
2019-01-16T01:45:34.402Z,5.50
2019-01-16T01:48:09.861Z,6.03
2019-01-16T01:51:02.519Z,5.37
2019-01-16T01:53:49.782Z,5.13
2019-01-16T01:56:48.799Z,6.23
2019-01-16T01:59:27.221Z,5.30
2019-01-16T02:02:10.711Z,5.37
2019-01-16T02:04:52.538Z,5.10
2019-01-16T02:07:43.023Z,4.60
2019-01-16T02:10:30.071Z,5.13
2019-01-16T02:13:26.135Z,5.97
2019-01-16T02:16:11.390Z,4.30
2019-01-16T02:18:57.170Z,4.90
2019-01-16T02:21:42.690Z,5.00
2019-01-16T02:24:28.206Z,4.50
2019-01-16T02:27:17.966Z,4.60
2019-01-16T02:30:02.497Z,5.73
2019-01-16T02:32:52.719Z,4.30
2019-01-16T02:35:45.468Z,4.87
2019-01-16T02:38:38.430Z,5.10
2019-01-16T02:41:22.026Z,5.00
2019-01-16T02:44:04.042Z,4.90
2019-01-16T02:46:51.934Z,6.90
2019-01-16T02:49:37.647Z,4.67
2019-01-16T02:52:27.688Z,4.60
2019-01-16T02:55:32.766Z,6.17
2019-01-16T02:58:22.702Z,5.10
2019-01-16T03:01:08.158Z,4.67
2019-01-16T03:03:53.827Z,5.07
2019-01-16T03:06:49.778Z,4.00
2019-01-16T03:09:39.076Z,4.80
2019-01-16T03:12:27.699Z,4.30
2019-01-16T03:15:14.927Z,5.00
2019-01-16T03:18:00.162Z,4.70
2019-01-16T03:20:47.115Z,5.03
2019-01-16T03:23:32.828Z,5.00
2019-01-16T03:26:32.174Z,4.07
2019-01-16T03:29:25.130Z,5.20
2019-01-16T03:32:06.908Z,4.20
2019-01-16T03:34:56.610Z,4.37
2019-01-16T03:37:55.586Z,4.40
2019-01-16T03:40:41.306Z,4.40
2019-01-16T03:43:32.098Z,4.70
2019-01-16T03:46:13.369Z,4.93
2019-01-16T03:49:12.946Z,4.53
2019-01-16T03:51:58.891Z,4.47
2019-01-16T03:54:57.914Z,3.77
2019-01-16T03:57:35.078Z,4.03
2019-01-16T04:00:21.400Z,3.43
2019-01-16T04:03:13.780Z,4.00
2019-01-16T04:05:51.079Z,3.47
2019-01-16T04:08:38.535Z,4.27
2019-01-16T04:11:44.247Z,3.97
2019-01-16T04:14:40.150Z,4.10
2019-01-16T04:17:27.179Z,3.80
2019-01-16T04:20:12.394Z,5.10
2019-01-16T04:22:52.222Z,3.83
2019-01-16T04:25:57.355Z,3.90
2019-01-16T04:28:38.226Z,2.73
2019-01-16T04:31:31.287Z,3.90
2019-01-16T04:34:21.643Z,3.10
2019-01-16T04:37:18.095Z,3.03
2019-01-16T04:40:20.252Z,3.23
2019-01-16T04:43:19.776Z,4.23
2019-01-16T04:46:15.945Z,3.20
2019-01-16T04:48:56.110Z,3.37
2019-01-16T04:51:43.171Z,3.37
2019-01-16T04:54:28.855Z,4.60
2019-01-16T04:57:21.635Z,4.00
2019-01-16T05:00:08.671Z,4.37
2019-01-16T05:03:01.877Z,3.53
2019-01-16T05:05:55.015Z,4.63
2019-01-16T05:08:36.039Z,4.80
2019-01-16T05:11:34.991Z,4.73
2019-01-16T05:14:31.154Z,5.53
2019-01-16T05:17:19.611Z,3.73
2019-01-16T05:20:05.148Z,5.10
2019-01-16T05:22:43.775Z,3.93
2019-01-16T05:25:37.706Z,3.63
2019-01-16T05:28:23.079Z,3.13
2019-01-16T05:31:03.943Z,5.00
2019-01-16T05:33:57.194Z,3.63
2019-01-16T05:36:44.451Z,3.33
2019-01-16T05:39:31.798Z,4.33
2019-01-16T05:42:18.930Z,3.90
2019-01-16T05:45:00.799Z,3.23
2019-01-16T05:47:41.334Z,3.80
2019-01-16T05:50:30.967Z,3.80
2019-01-16T05:53:16.594Z,3.60
2019-01-16T05:56:02.380Z,3.93
2019-01-16T05:59:01.542Z,4.50
2019-01-16T06:01:37.566Z,4.87
2019-01-16T06:04:33.485Z,3.90
2019-01-16T06:07:32.974Z,7.23
2019-01-16T06:10:29.127Z,5.50
2019-01-16T06:13:28.338Z,7.83
2019-01-16T06:16:13.954Z,6.40
2019-01-16T06:18:51.372Z,4.93
2019-01-16T06:21:36.790Z,3.50
2019-01-16T06:24:32.722Z,3.27
2019-01-16T06:27:12.094Z,4.10
2019-01-16T06:29:52.115Z,3.57
2019-01-16T06:32:37.607Z,3.60
2019-01-16T06:35:36.987Z,4.00
2019-01-16T06:38:22.743Z,3.73
2019-01-16T06:41:11.897Z,4.50
2019-01-16T06:43:57.410Z,4.23
2019-01-16T06:47:02.238Z,4.40
2019-01-16T06:50:01.539Z,4.07
2019-01-16T06:52:43.836Z,4.67
2019-01-16T06:55:19.997Z,4.40
2019-01-16T06:58:13.207Z,4.63
2019-01-16T07:01:00.535Z,4.70
2019-01-16T07:03:59.510Z,3.80
2019-01-16T07:06:35.392Z,4.77
2019-01-16T07:09:26.618Z,5.80
2019-01-16T07:12:12.167Z,5.00
2019-01-16T07:15:11.076Z,4.53
2019-01-16T07:18:13.026Z,5.00
2019-01-16T07:21:07.337Z,5.10
2019-01-16T07:24:03.358Z,4.17
2019-01-16T07:26:49.548Z,6.07
2019-01-16T07:29:32.526Z,5.17
2019-01-16T07:32:17.711Z,4.37
2019-01-16T07:35:10.926Z,5.50
2019-01-16T07:37:58.246Z,5.60
2019-01-16T07:40:44.176Z,5.43
2019-01-16T07:43:29.692Z,6.30
2019-01-16T07:46:22.610Z,5.20
2019-01-16T07:49:21.800Z,5.67
2019-01-16T07:52:17.896Z,4.93
2019-01-16T07:55:03.587Z,6.40
2019-01-16T07:57:59.895Z,5.07
2019-01-16T08:00:36.041Z,6.60
2019-01-16T08:03:32.083Z,5.83
2019-01-16T08:06:13.772Z,5.73
2019-01-16T08:09:11.442Z,4.90
2019-01-16T08:12:04.392Z,6.00
2019-01-16T08:14:54.194Z,5.40
2019-01-16T08:17:45.968Z,5.23
2019-01-16T08:20:48.138Z,5.03
2019-01-16T08:23:38.090Z,5.57
2019-01-16T08:26:25.175Z,5.20
2019-01-16T08:29:10.807Z,5.17
2019-01-16T08:31:48.972Z,4.67
2019-01-16T08:34:35.955Z,6.83
2019-01-16T08:37:28.866Z,5.03
2019-01-16T08:40:14.246Z,5.13
2019-01-16T08:42:52.138Z,5.30
2019-01-16T08:45:42.017Z,5.17
2019-01-16T08:48:31.931Z,5.87
2019-01-16T08:51:17.578Z,5.33
2019-01-16T08:54:03.422Z,5.63
2019-01-16T08:56:44.477Z,7.13
2019-01-16T08:59:34.615Z,6.73
2019-01-16T09:02:20.674Z,6.60
2019-01-16T09:05:10.371Z,6.73
2019-01-16T09:07:54.243Z,6.90
2019-01-16T09:10:41.225Z,6.90
2019-01-16T09:13:28.578Z,8.13
2019-01-16T09:16:15.839Z,7.30
2019-01-16T09:19:04.339Z,7.33
2019-01-16T09:21:57.147Z,8.03
2019-01-16T09:24:42.692Z,7.67
2019-01-16T09:27:20.061Z,6.40
2019-01-16T09:29:56.735Z,8.50
2019-01-16T09:32:43.691Z,7.30
2019-01-16T09:35:24.911Z,8.37
2019-01-16T09:38:20.754Z,7.97
2019-01-16T09:41:06.234Z,7.60
2019-01-16T09:43:52.267Z,7.60
2019-01-16T09:46:38.479Z,8.60
2019-01-16T09:49:31.515Z,7.30
2019-01-16T09:52:09.834Z,7.57
2019-01-16T09:55:02.774Z,7.83
2019-01-16T09:57:48.250Z,6.67
2019-01-16T10:00:43.230Z,7.37
2019-01-16T10:03:32.765Z,7.77
2019-01-16T10:06:17.782Z,7.70
2019-01-16T10:09:23.307Z,8.27
2019-01-16T10:12:19.325Z,7.10
2019-01-16T10:15:09.202Z,7.73
2019-01-16T10:17:49.996Z,8.20
2019-01-16T10:20:35.758Z,6.83
2019-01-16T10:23:18.022Z,8.10
2019-01-16T10:26:03.792Z,7.37
2019-01-16T10:28:50.955Z,6.87
2019-01-16T10:31:55.667Z,7.67
2019-01-16T10:34:45.687Z,7.50
2019-01-16T10:37:31.700Z,7.07
2019-01-16T10:40:21.707Z,7.30
2019-01-16T10:43:26.906Z,5.87
2019-01-16T10:46:25.494Z,5.80
2019-01-16T10:49:01.102Z,5.93
2019-01-16T10:51:46.822Z,7.13
2019-01-16T10:54:32.910Z,7.50
2019-01-16T10:57:18.427Z,7.70
2019-01-16T11:00:05.873Z,7.73
2019-01-16T11:02:51.282Z,7.70
2019-01-16T11:05:36.918Z,6.70
2019-01-16T11:08:29.961Z,7.07
2019-01-16T11:11:16.875Z,6.23
2019-01-16T11:14:01.052Z,5.20
2019-01-16T11:16:56.781Z,5.60
2019-01-16T11:19:49.818Z,4.80
2019-01-16T11:22:46.191Z,5.73
2019-01-16T11:25:35.118Z,6.60
2019-01-16T11:28:20.570Z,6.50
2019-01-16T11:31:22.447Z,4.20
2019-01-16T11:34:09.489Z,5.20
2019-01-16T11:36:55.586Z,4.20
2019-01-16T11:39:30.762Z,5.87
2019-01-16T11:42:16.466Z,5.60
2019-01-16T11:45:21.842Z,4.80
2019-01-16T11:48:07.246Z,4.13
2019-01-16T11:50:52.858Z,4.40
2019-01-16T11:53:38.360Z,5.10
2019-01-16T11:56:23.920Z,4.43
2019-01-16T11:59:10.902Z,3.67
2019-01-16T12:02:03.622Z,4.77
2019-01-16T12:04:55.441Z,4.70
2019-01-16T12:07:39.017Z,5.87
2019-01-16T12:10:29.891Z,4.57
2019-01-16T12:13:13.625Z,5.10
2019-01-16T12:16:08.114Z,6.83
2019-01-16T12:18:52.753Z,5.30
2019-01-16T12:21:38.433Z,5.83
2019-01-16T12:24:18.447Z,5.30
2019-01-16T12:27:03.588Z,5.53
2019-01-16T12:29:56.515Z,5.40
2019-01-16T12:32:33.914Z,5.43
2019-01-16T12:35:19.074Z,5.70
2019-01-16T12:38:04.380Z,6.70
2019-01-16T12:41:06.436Z,7.60
2019-01-16T12:43:59.495Z,5.23
2019-01-16T12:46:46.554Z,5.37
2019-01-16T12:49:32.047Z,5.47
2019-01-16T12:52:21.975Z,6.77
2019-01-16T12:55:07.150Z,5.03
2019-01-16T12:57:53.002Z,5.00
2019-01-16T13:00:30.041Z,5.70
2019-01-16T13:03:15.932Z,5.00
2019-01-16T13:06:03.003Z,5.40
2019-01-16T13:08:50.310Z,8.00
2019-01-16T13:11:37.426Z,4.80
2019-01-16T13:14:30.102Z,4.70
2019-01-16T13:17:19.010Z,5.80
2019-01-16T13:20:04.390Z,5.13
2019-01-16T13:22:54.012Z,5.67
2019-01-16T13:25:39.702Z,5.67
2019-01-16T13:28:32.630Z,7.10
2019-01-16T13:31:18.107Z,5.77
2019-01-16T13:34:06.904Z,5.90
2019-01-16T13:36:54.002Z,4.90
2019-01-16T13:39:41.286Z,5.60
2019-01-16T13:42:21.612Z,6.30
2019-01-16T13:45:11.653Z,5.60
2019-01-16T13:47:59.038Z,4.83
2019-01-16T13:50:49.353Z,4.60
2019-01-16T13:53:43.745Z,4.27
2019-01-16T13:56:34.035Z,5.50
2019-01-16T13:59:35.940Z,4.10
2019-01-16T14:02:38.324Z,5.00
2019-01-16T14:05:28.720Z,5.20
2019-01-16T14:08:34.078Z,6.90
2019-01-16T14:11:24.163Z,5.23
2019-01-16T14:14:12.686Z,5.40
2019-01-16T14:16:58.265Z,6.90
2019-01-16T14:19:57.082Z,5.83
2019-01-16T14:22:49.792Z,4.97
2019-01-16T14:25:48.827Z,5.13
2019-01-16T14:28:42.330Z,5.50
2019-01-16T14:31:27.943Z,5.83
2019-01-16T14:34:18.074Z,5.37
2019-01-16T14:37:07.819Z,4.83
2019-01-16T14:39:46.720Z,4.83
2019-01-16T14:42:22.370Z,5.10
2019-01-16T14:45:03.388Z,7.77
2019-01-16T14:47:42.898Z,5.60
2019-01-16T14:50:23.962Z,5.30
2019-01-16T14:53:06.414Z,5.50
2019-01-16T14:56:02.402Z,8.80
2019-01-16T14:58:38.257Z,8.93
2019-01-16T15:01:23.772Z,7.03
2019-01-16T15:03:58.696Z,8.43
2019-01-16T15:06:39.284Z,6.30
2019-01-16T15:09:28.279Z,5.30
2019-01-16T15:12:04.928Z,5.67
2019-01-16T15:14:50.757Z,5.77
2019-01-16T15:17:50.242Z,4.97
2019-01-16T15:20:33.650Z,4.87
2019-01-16T15:23:21.030Z,4.87
2019-01-16T15:26:14.086Z,5.70
2019-01-16T15:29:04.107Z,5.40
2019-01-16T15:31:50.797Z,5.70
2019-01-16T15:34:37.783Z,6.57
2019-01-16T15:37:39.861Z,12.10
2019-01-16T15:40:32.186Z,6.50
2019-01-16T15:43:34.323Z,5.67
2019-01-16T15:46:13.895Z,5.27
2019-01-16T15:48:59.406Z,6.97
2019-01-16T15:51:44.691Z,9.83
2019-01-16T15:54:31.694Z,8.47
2019-01-16T15:57:36.770Z,7.30
2019-01-16T16:00:24.161Z,5.60
2019-01-16T16:03:19.946Z,5.77
2019-01-16T16:06:15.954Z,6.93
2019-01-16T16:09:02.984Z,7.07
2019-01-16T16:11:43.790Z,7.37
2019-01-16T16:14:29.899Z,7.80
2019-01-16T16:17:23.490Z,7.60
2019-01-16T16:20:05.408Z,7.53
2019-01-16T16:22:52.438Z,7.63
2019-01-16T16:25:42.752Z,6.53
2019-01-16T16:28:28.647Z,6.33
2019-01-16T16:31:21.759Z,6.30
2019-01-16T16:34:21.288Z,6.33
2019-01-16T16:37:08.986Z,6.07
2019-01-16T16:39:54.993Z,6.23
2019-01-16T16:42:53.930Z,6.40
2019-01-16T16:45:30.474Z,7.53
2019-01-16T16:48:23.499Z,7.17
2019-01-16T16:51:03.251Z,6.17
2019-01-16T16:53:49.843Z,6.30
2019-01-16T16:56:51.763Z,7.13
2019-01-16T16:59:44.395Z,6.60
2019-01-16T17:02:29.694Z,7.80
2019-01-16T17:05:19.758Z,7.20
2019-01-16T17:08:07.027Z,7.10
2019-01-16T17:10:41.966Z,6.53
2019-01-16T17:13:27.894Z,6.40
2019-01-16T17:16:09.631Z,7.57
2019-01-16T17:19:08.680Z,6.23
2019-01-16T17:22:08.097Z,6.17
2019-01-16T17:24:53.612Z,7.20
2019-01-16T17:27:43.375Z,5.90
2019-01-16T17:30:37.443Z,6.53
2019-01-16T17:33:31.159Z,6.27
2019-01-16T17:36:24.589Z,5.93
2019-01-16T17:39:17.236Z,8.70
2019-01-16T17:42:08.151Z,7.40
2019-01-16T17:45:07.186Z,7.10
2019-01-16T17:48:03.498Z,6.10
2019-01-16T17:50:59.661Z,7.33
2019-01-16T17:53:55.099Z,6.87
2019-01-16T17:56:40.610Z,7.20
2019-01-16T17:59:30.298Z,7.27
2019-01-16T18:02:16.330Z,6.83
2019-01-16T18:05:15.790Z,10.03
2019-01-16T18:08:03.102Z,8.07
2019-01-16T18:10:48.514Z,6.83
2019-01-16T18:13:28.594Z,8.23
2019-01-16T18:16:14.292Z,7.53
2019-01-16T18:18:53.278Z,8.83
2019-01-16T18:21:58.369Z,9.40
2019-01-16T18:24:43.853Z,9.10
2019-01-16T18:27:28.571Z,8.20
2019-01-16T18:30:27.787Z,7.57
2019-01-16T18:33:07.294Z,8.13
2019-01-16T18:35:46.978Z,7.33
2019-01-16T18:38:52.134Z,7.30
2019-01-16T18:41:35.979Z,5.87
2019-01-16T18:44:29.054Z,7.37
2019-01-16T18:47:14.479Z,7.50
2019-01-16T18:50:01.574Z,8.13
2019-01-16T18:52:51.898Z,7.00
2019-01-16T18:55:34.013Z,7.67
2019-01-16T18:58:17.653Z,7.60
2019-01-16T19:01:04.659Z,7.23
2019-01-16T19:03:44.832Z,8.37
2019-01-16T19:06:34.474Z,8.50
2019-01-16T19:09:36.882Z,7.80
2019-01-16T19:12:22.406Z,8.40
2019-01-16T19:15:10.986Z,7.53
2019-01-16T19:17:54.277Z,8.57
2019-01-16T19:20:59.616Z,9.23
2019-01-16T19:23:48.914Z,8.40
2019-01-16T19:26:48.002Z,9.33
2019-01-16T19:29:33.505Z,8.23
2019-01-16T19:32:36.023Z,9.67
2019-01-16T19:35:39.168Z,9.47
2019-01-16T19:38:23.500Z,8.77
2019-01-16T19:41:25.522Z,9.23
2019-01-16T19:44:13.352Z,9.37
2019-01-16T19:46:52.970Z,8.33
2019-01-16T19:49:49.756Z,9.17
2019-01-16T19:52:55.086Z,10.60
2019-01-16T19:55:40.969Z,8.80
2019-01-16T19:58:26.914Z,8.90
2019-01-16T20:01:12.586Z,7.90
2019-01-16T20:03:50.078Z,8.93
2019-01-16T20:06:53.988Z,8.90
2019-01-16T20:09:45.603Z,9.90
2019-01-16T20:12:35.502Z,8.70
2019-01-16T20:15:32.028Z,9.23
2019-01-16T20:18:25.190Z,8.83
2019-01-16T20:21:21.266Z,8.10
2019-01-16T20:24:08.310Z,9.00
2019-01-16T20:27:01.062Z,9.17
2019-01-16T20:29:51.139Z,8.33
2019-01-16T20:32:46.998Z,7.93
2019-01-16T20:35:34.064Z,8.97
2019-01-16T20:38:20.176Z,8.47
2019-01-16T20:41:05.536Z,7.20
2019-01-16T20:43:55.518Z,7.40
2019-01-16T20:46:41.040Z,7.57
2019-01-16T20:49:27.175Z,7.53
2019-01-16T20:52:07.206Z,9.00
2019-01-16T20:55:00.298Z,9.20
2019-01-16T20:57:49.971Z,9.63
2019-01-16T21:00:39.662Z,8.60
2019-01-16T21:03:25.028Z,8.13
2019-01-16T21:06:12.832Z,7.70
2019-01-16T21:08:59.911Z,8.17
2019-01-16T21:11:49.532Z,8.80
2019-01-16T21:14:31.619Z,8.37
2019-01-16T21:17:08.618Z,8.13
2019-01-16T21:19:47.614Z,7.53
2019-01-16T21:22:35.834Z,7.17
2019-01-16T21:25:16.406Z,8.00
2019-01-16T21:28:04.171Z,8.83
2019-01-16T21:30:57.018Z,9.00
2019-01-16T21:33:42.815Z,8.00
2019-01-16T21:36:32.651Z,7.00
2019-01-16T21:39:25.434Z,9.10
2019-01-16T21:42:16.849Z,7.73
2019-01-16T21:45:06.701Z,7.07
2019-01-16T21:47:54.281Z,7.67
2019-01-16T21:50:40.228Z,8.93
2019-01-16T21:53:33.130Z,9.20
2019-01-16T21:56:10.661Z,8.27
2019-01-16T21:59:00.820Z,7.47
2019-01-16T22:01:46.373Z,9.43
2019-01-16T22:04:32.040Z,9.90
2019-01-16T22:07:17.393Z,8.23
2019-01-16T22:10:19.586Z,8.03
2019-01-16T22:13:18.494Z,8.77
2019-01-16T22:16:04.070Z,7.63
2019-01-16T22:18:51.034Z,8.40
2019-01-16T22:21:27.799Z,8.70
2019-01-16T22:24:14.771Z,8.47
2019-01-16T22:27:07.670Z,8.10
2019-01-16T22:30:03.378Z,7.90
2019-01-16T22:32:45.134Z,9.23
2019-01-16T22:35:30.774Z,7.87
2019-01-16T22:38:16.687Z,8.33
2019-01-16T22:41:12.762Z,7.10
2019-01-16T22:44:05.868Z,8.83
2019-01-16T22:46:47.144Z,8.67
2019-01-16T22:49:52.070Z,7.40
2019-01-16T22:52:48.463Z,8.13
2019-01-16T22:55:41.182Z,8.40
2019-01-16T22:58:22.446Z,7.40
2019-01-16T23:01:11.763Z,8.20
2019-01-16T23:03:56.854Z,8.00
2019-01-16T23:06:42.489Z,7.27
2019-01-16T23:09:41.398Z,8.50
2019-01-16T23:12:29.083Z,9.07
2019-01-16T23:15:31.330Z,8.17
2019-01-16T23:18:16.774Z,7.50
2019-01-16T23:20:56.243Z,7.70
2019-01-16T23:23:49.818Z,8.03
2019-01-16T23:26:33.557Z,8.03
2019-01-16T23:29:11.673Z,9.20
2019-01-16T23:32:16.633Z,8.83
2019-01-16T23:34:55.322Z,8.37
2019-01-16T23:37:40.878Z,9.10
2019-01-16T23:40:37.677Z,9.07
2019-01-16T23:43:30.982Z,7.77
2019-01-16T23:46:26.838Z,8.60
2019-01-16T23:49:15.015Z,8.80
2019-01-16T23:52:01.079Z,8.60
2019-01-16T23:54:45.508Z,8.40
2019-01-16T23:57:47.579Z,8.60
